Time;durP1;ratioP1;P1;durP2;ratioP2;P2;SDS_P1;SDS_P2;PMS_P1;PMS_P2;Temp;Humidity;BMP_temperature;BMP_pressure;BME280_temperature;BME280_humidity;BME280_pressure;Samples;Min_cycle;Max_cycle;Signal;HPM_P1;HPM_P2
2024/01/20 00:00:54;;;;;;;32.55;30.58;;;;;;;;;;5029312;28;20099;-61
2024/01/20 00:03:19;;;;;;;32.42;30.52;;;;;;;;;;5035367;28;20041;-61
2024/01/20 00:05:45;;;;;;;33.58;31.45;;;;;;;;;;5032745;28;20087;-61
2024/01/20 00:08:11;;;;;;;31.80;29.90;;;;;;;;;;5036257;28;20029;-61
2024/01/20 00:10:36;;;;;;;32.40;30.27;;;;;;;;;;5035108;28;20057;-61
2024/01/20 00:13:02;;;;;;;33.47;31.58;;;;;;;;;;5031539;28;20470;-61
2024/01/20 00:15:27;;;;;;;31.50;29.60;;;;;;;;;;5031371;28;20041;-61
2024/01/20 00:17:52;;;;;;;32.20;30.38;;;;;;;;;;5032550;28;20057;-61
2024/01/20 00:20:18;;;;;;;35.47;33.47;;;;;;;;;;5033624;28;20124;-61
2024/01/20 00:22:43;;;;;;;33.47;31.58;;;;;;;;;;5034228;28;20045;-61
2024/01/20 00:25:09;;;;;;;30.75;29.05;;;;;;;;;;5031488;28;20049;-61
2024/01/20 00:27:34;;;;;;;33.22;31.42;;;;;;;;;;5034357;28;20052;-61
2024/01/20 00:30:00;;;;;;;33.13;31.13;;;;;;;;;;5030800;28;20037;-61
2024/01/20 00:32:25;;;;;;;32.75;30.83;;;;;;;;;;5035693;28;20112;-61
2024/01/20 00:34:51;;;;;;;34.97;31.42;;;;;;;;;;5034386;28;20029;-62
2024/01/20 00:37:16;;;;;;;32.47;30.67;;;;;;;;;;5036138;28;20478;-61
2024/01/20 00:39:41;;;;;;;32.08;30.15;;;;;;;;;;5032840;28;20034;-61
2024/01/20 00:42:06;;;;;;;32.63;30.38;;;;;;;;;;5033436;28;20249;-61
2024/01/20 00:44:32;;;;;;;32.15;30.33;;;;;;;;;;5034136;28;20099;-61
2024/01/20 00:46:57;;;;;;;33.38;31.35;;;;;;;;;;5034043;28;20116;-61
2024/01/20 00:49:22;;;;;;;31.35;29.42;;;;;;;;;;5032326;28;20406;-61
2024/01/20 00:51:48;;;;;;;33.20;31.40;;;;;;;;;;5030618;28;20192;-61
2024/01/20 00:54:13;;;;;;;34.25;32.10;;;;;;;;;;5033865;28;20480;-61
2024/01/20 00:56:38;;;;;;;34.15;32.25;;;;;;;;;;5032633;28;20044;-61
2024/01/20 00:59:04;;;;;;;31.63;29.65;;;;;;;;;;5030808;28;20048;-61
2024/01/20 01:01:29;;;;;;;34.70;32.33;;;;;;;;;;5030904;28;20029;-61
2024/01/20 01:03:54;;;;;;;32.75;30.70;;;;;;;;;;5030967;28;20424;-61
2024/01/20 01:06:20;;;;;;;31.27;29.05;;;;;;;;;;5034851;28;20041;-61
2024/01/20 01:08:45;;;;;;;30.55;28.88;;;;;;;;;;5032142;28;20366;-57
2024/01/20 01:11:10;;;;;;;31.50;29.75;;;;;;;;;;5031191;28;20033;-55
2024/01/20 01:13:37;;;;;;;33.20;30.98;;;;;;;;;;5031614;28;20379;-53
2024/01/20 01:16:04;;;;;;;32.03;30.23;;;;;;;;;;5030205;28;20029;-57
2024/01/20 01:18:29;;;;;;;30.25;28.35;;;;;;;;;;5032402;28;20265;-56
2024/01/20 01:20:55;;;;;;;31.73;28.70;;;;;;;;;;5032443;28;20061;-54
2024/01/20 01:23:20;;;;;;;29.73;28.13;;;;;;;;;;5035543;28;20113;-56
2024/01/20 01:25:45;;;;;;;34.78;32.78;;;;;;;;;;5033332;28;20033;-56
2024/01/20 01:28:11;;;;;;;32.63;30.63;;;;;;;;;;5035079;28;20028;-53
2024/01/20 01:30:36;;;;;;;31.00;29.23;;;;;;;;;;5031968;28;20053;-55
2024/01/20 01:33:02;;;;;;;31.08;29.08;;;;;;;;;;5030124;28;20427;-57
2024/01/20 01:35:27;;;;;;;33.35;31.15;;;;;;;;;;5032412;28;20324;-56
2024/01/20 01:37:52;;;;;;;34.55;32.30;;;;;;;;;;5036899;28;20036;-58
2024/01/20 01:40:18;;;;;;;29.58;27.98;;;;;;;;;;5032843;28;20021;-55
2024/01/20 01:42:43;;;;;;;30.08;28.40;;;;;;;;;;5032631;28;20037;-57
2024/01/20 01:45:09;;;;;;;31.00;29.10;;;;;;;;;;5029885;28;20053;-57
2024/01/20 01:47:35;;;;;;;31.33;29.35;;;;;;;;;;5032066;28;20463;-56
2024/01/20 01:50:01;;;;;;;30.60;28.70;;;;;;;;;;5031708;28;20085;-56
2024/01/20 01:52:29;;;;;;;31.67;29.88;;;;;;;;;;5033596;28;20060;-57
2024/01/20 01:54:56;;;;;;;32.38;30.35;;;;;;;;;;5035874;28;20094;-56
2024/01/20 01:57:21;;;;;;;33.15;30.45;;;;;;;;;;5029714;28;20336;-57
2024/01/20 01:59:48;;;;;;;32.45;30.50;;;;;;;;;;5032736;28;20030;-57
2024/01/20 02:02:13;;;;;;;35.95;33.88;;;;;;;;;;5032936;28;20044;-57
2024/01/20 02:04:38;;;;;;;31.13;29.33;;;;;;;;;;5032871;28;20037;-55
2024/01/20 02:07:04;;;;;;;29.10;27.50;;;;;;;;;;5032564;28;20124;-55
2024/01/20 02:09:31;;;;;;;33.88;30.65;;;;;;;;;;5033599;28;20064;-56
2024/01/20 02:11:57;;;;;;;33.85;31.63;;;;;;;;;;5034427;28;20124;-56
2024/01/20 02:14:23;;;;;;;33.40;29.85;;;;;;;;;;5033309;28;20127;-57
2024/01/20 02:16:48;;;;;;;30.70;28.60;;;;;;;;;;5031829;28;20467;-57
2024/01/20 02:19:14;;;;;;;31.30;29.40;;;;;;;;;;5030502;28;20317;-55
2024/01/20 02:21:41;;;;;;;30.30;28.38;;;;;;;;;;5032585;28;20036;-56
2024/01/20 02:24:08;;;;;;;32.25;29.95;;;;;;;;;;5030034;28;20068;-56
2024/01/20 02:26:34;;;;;;;35.65;31.95;;;;;;;;;;5030971;28;20329;-56
2024/01/20 02:28:59;;;;;;;33.50;31.42;;;;;;;;;;5030431;28;20044;-58
2024/01/20 02:31:24;;;;;;;33.72;31.65;;;;;;;;;;5031775;28;20116;-56
2024/01/20 02:33:50;;;;;;;36.03;33.72;;;;;;;;;;5028394;28;20384;-57
2024/01/20 02:36:15;;;;;;;40.83;38.05;;;;;;;;;;5032101;28;20341;-56
2024/01/20 02:38:40;;;;;;;33.10;31.25;;;;;;;;;;5030376;28;20037;-56
2024/01/20 02:41:06;;;;;;;32.42;30.38;;;;;;;;;;5030570;28;20048;-56
2024/01/20 02:43:31;;;;;;;33.03;30.95;;;;;;;;;;5031401;28;20299;-56
2024/01/20 02:45:56;;;;;;;31.15;28.67;;;;;;;;;;5030540;28;20033;-56
2024/01/20 02:48:23;;;;;;;33.25;30.13;;;;;;;;;;5033152;28;20374;-54
2024/01/20 02:50:48;;;;;;;33.78;31.55;;;;;;;;;;5029228;28;20030;-57
2024/01/20 02:53:13;;;;;;;30.00;28.30;;;;;;;;;;5033296;28;20041;-54
2024/01/20 02:55:39;;;;;;;33.03;30.92;;;;;;;;;;5030929;28;20036;-51
2024/01/20 02:58:04;;;;;;;35.17;32.47;;;;;;;;;;5029533;28;20116;-55
2024/01/20 03:00:29;;;;;;;32.78;30.30;;;;;;;;;;5030190;28;20449;-54
2024/01/20 03:02:55;;;;;;;30.33;28.58;;;;;;;;;;5032199;28;20459;-55
2024/01/20 03:05:20;;;;;;;29.85;28.08;;;;;;;;;;5032431;28;20030;-54
2024/01/20 03:07:46;;;;;;;35.47;33.10;;;;;;;;;;5031365;28;20033;-56
2024/01/20 03:10:11;;;;;;;35.10;32.97;;;;;;;;;;5029548;28;20040;-54
2024/01/20 03:12:36;;;;;;;35.08;32.97;;;;;;;;;;5030096;28;20053;-55
2024/01/20 03:15:02;;;;;;;34.03;32.05;;;;;;;;;;5028524;28;20348;-55
2024/01/20 03:17:29;;;;;;;35.85;32.85;;;;;;;;;;5028812;28;20659;-56
2024/01/20 03:19:54;;;;;;;32.85;31.00;;;;;;;;;;5033651;28;20033;-54
2024/01/20 03:22:19;;;;;;;35.20;32.83;;;;;;;;;;5030246;28;20107;-55
2024/01/20 03:24:46;;;;;;;33.72;31.73;;;;;;;;;;5029490;28;20320;-56
2024/01/20 03:27:13;;;;;;;35.22;33.20;;;;;;;;;;5033593;28;20476;-57
2024/01/20 03:29:39;;;;;;;36.55;33.92;;;;;;;;;;5029222;28;20529;-57
2024/01/20 03:32:04;;;;;;;36.55;34.55;;;;;;;;;;5032484;28;20041;-55
2024/01/20 03:34:29;;;;;;;33.30;31.17;;;;;;;;;;5030545;28;20509;-54
2024/01/20 03:36:55;;;;;;;34.40;32.28;;;;;;;;;;5032363;28;20548;-53
2024/01/20 03:39:20;;;;;;;33.15;31.15;;;;;;;;;;5035015;28;20057;-56
2024/01/20 03:41:45;;;;;;;32.08;30.10;;;;;;;;;;5033109;28;20029;-55
2024/01/20 03:44:11;;;;;;;35.03;32.90;;;;;;;;;;5034568;28;20652;-55
2024/01/20 03:46:36;;;;;;;32.05;30.20;;;;;;;;;;5034099;28;20379;-57
2024/01/20 03:49:01;;;;;;;32.75;30.67;;;;;;;;;;5036758;28;20041;-57
2024/01/20 03:51:27;;;;;;;32.15;30.15;;;;;;;;;;5031838;28;20103;-57
2024/01/20 03:53:53;;;;;;;36.78;34.47;;;;;;;;;;5033818;28;20026;-57
2024/01/20 03:56:18;;;;;;;33.90;31.73;;;;;;;;;;5032361;28;20025;-56
2024/01/20 03:58:44;;;;;;;34.08;31.75;;;;;;;;;;5033811;28;20501;-52
2024/01/20 04:01:09;;;;;;;34.58;32.22;;;;;;;;;;5031201;28;21344;-59
2024/01/20 04:03:35;;;;;;;36.38;34.03;;;;;;;;;;5033934;28;20060;-56
2024/01/20 04:06:02;;;;;;;34.22;32.15;;;;;;;;;;5034788;28;20372;-56
2024/01/20 04:08:27;;;;;;;33.30;31.25;;;;;;;;;;5036203;28;20029;-53
2024/01/20 04:10:52;;;;;;;35.50;32.85;;;;;;;;;;5034944;28;20365;-56
2024/01/20 04:13:18;;;;;;;35.55;33.03;;;;;;;;;;5034280;28;20355;-55
2024/01/20 04:15:43;;;;;;;36.08;33.75;;;;;;;;;;5032970;28;20367;-57
2024/01/20 04:18:09;;;;;;;35.85;33.70;;;;;;;;;;5033488;28;20053;-55
2024/01/20 04:20:34;;;;;;;37.10;33.90;;;;;;;;;;5032769;28;20052;-57
2024/01/20 04:22:59;;;;;;;37.15;34.65;;;;;;;;;;5035111;28;20021;-56
2024/01/20 04:25:24;;;;;;;34.35;32.22;;;;;;;;;;5031364;28;21143;-56
2024/01/20 04:27:50;;;;;;;37.70;35.15;;;;;;;;;;5035410;28;20037;-54
2024/01/20 04:30:15;;;;;;;40.20;36.00;;;;;;;;;;5027723;28;20352;-56
2024/01/20 04:32:40;;;;;;;39.17;36.58;;;;;;;;;;5036061;28;20103;-57
2024/01/20 04:35:07;;;;;;;39.15;36.70;;;;;;;;;;5034758;28;20156;-53
2024/01/20 04:37:32;;;;;;;35.97;33.10;;;;;;;;;;5034873;28;20037;-57
2024/01/20 04:39:59;;;;;;;37.50;35.10;;;;;;;;;;5031857;28;20377;-56
2024/01/20 04:42:25;;;;;;;40.15;36.83;;;;;;;;;;5032702;28;20087;-56
2024/01/20 04:44:50;;;;;;;38.67;36.35;;;;;;;;;;5034619;28;20071;-55
2024/01/20 04:47:15;;;;;;;37.40;35.13;;;;;;;;;;5033508;28;20045;-57
2024/01/20 04:49:41;;;;;;;38.53;36.20;;;;;;;;;;5033907;28;20116;-57
2024/01/20 04:52:06;;;;;;;37.20;34.00;;;;;;;;;;5034725;28;20033;-56
2024/01/20 04:54:31;;;;;;;35.25;32.40;;;;;;;;;;5033914;28;20367;-55
2024/01/20 04:56:57;;;;;;;36.55;34.45;;;;;;;;;;5035763;28;20025;-56
2024/01/20 04:59:23;;;;;;;34.92;32.90;;;;;;;;;;5030822;28;20052;-55
2024/01/20 05:01:48;;;;;;;34.60;32.53;;;;;;;;;;5033135;28;20075;-56
2024/01/20 05:04:14;;;;;;;33.75;31.20;;;;;;;;;;5033901;28;20033;-55
2024/01/20 05:06:39;;;;;;;33.72;31.55;;;;;;;;;;5030282;28;20057;-56
2024/01/20 05:09:05;;;;;;;34.30;32.30;;;;;;;;;;5032914;28;20057;-56
2024/01/20 05:11:31;;;;;;;35.65;32.97;;;;;;;;;;5031603;28;20166;-55
2024/01/20 05:13:56;;;;;;;37.90;35.08;;;;;;;;;;5031818;28;20068;-56
2024/01/20 05:16:21;;;;;;;35.30;33.10;;;;;;;;;;5033165;28;20035;-55
2024/01/20 05:18:48;;;;;;;35.63;33.60;;;;;;;;;;5032489;28;20060;-55
2024/01/20 05:21:14;;;;;;;32.65;30.75;;;;;;;;;;5032362;28;20481;-55
2024/01/20 05:23:40;;;;;;;37.55;34.90;;;;;;;;;;5030429;28;20036;-58
2024/01/20 05:26:06;;;;;;;37.08;34.78;;;;;;;;;;5035050;28;20056;-55
2024/01/20 05:28:31;;;;;;;34.05;31.52;;;;;;;;;;5032835;28;20069;-56
2024/01/20 05:30:56;;;;;;;35.92;33.55;;;;;;;;;;5030633;28;20064;-54
2024/01/20 05:33:21;;;;;;;32.45;30.55;;;;;;;;;;5032562;28;20119;-55
2024/01/20 05:35:47;;;;;;;36.42;33.92;;;;;;;;;;5036472;28;20071;-53
2024/01/20 05:38:12;;;;;;;35.42;33.13;;;;;;;;;;5034578;28;20037;-55
2024/01/20 05:40:37;;;;;;;34.33;32.13;;;;;;;;;;5030144;28;20463;-58
2024/01/20 05:43:04;;;;;;;34.47;32.13;;;;;;;;;;5034215;28;20044;-55
2024/01/20 05:45:30;;;;;;;34.58;32.50;;;;;;;;;;5029848;28;20041;-59
2024/01/20 05:47:55;;;;;;;38.13;36.03;;;;;;;;;;5036098;28;20112;-57
2024/01/20 05:50:20;;;;;;;34.65;32.70;;;;;;;;;;5032038;28;20179;-55
2024/01/20 05:52:46;;;;;;;33.80;31.77;;;;;;;;;;5036078;28;20682;-56
2024/01/20 05:55:11;;;;;;;37.60;35.40;;;;;;;;;;5033665;28;20033;-58
2024/01/20 05:57:36;;;;;;;34.22;32.25;;;;;;;;;;5032492;28;20030;-55
2024/01/20 06:00:03;;;;;;;36.83;34.33;;;;;;;;;;5036628;28;20498;-56
2024/01/20 06:02:28;;;;;;;34.28;32.15;;;;;;;;;;5032737;28;20048;-58
2024/01/20 06:04:54;;;;;;;37.33;34.75;;;;;;;;;;5034354;28;20343;-57
2024/01/20 06:07:19;;;;;;;38.65;35.80;;;;;;;;;;5035715;28;20123;-56
2024/01/20 06:09:44;;;;;;;36.20;34.05;;;;;;;;;;5033666;28;20047;-56
2024/01/20 06:12:12;;;;;;;36.97;34.83;;;;;;;;;;5032931;28;20048;-54
2024/01/20 06:14:37;;;;;;;36.75;34.17;;;;;;;;;;5029609;28;20470;-57
2024/01/20 06:17:03;;;;;;;36.67;34.40;;;;;;;;;;5016064;28;20038;-56
2024/01/20 06:19:28;;;;;;;33.55;31.60;;;;;;;;;;5031647;28;20138;-58
2024/01/20 06:21:53;;;;;;;35.97;33.53;;;;;;;;;;5034007;28;20032;-57
2024/01/20 06:24:19;;;;;;;33.45;31.55;;;;;;;;;;5030754;28;20138;-56
2024/01/20 06:26:44;;;;;;;36.40;33.60;;;;;;;;;;5030495;28;20103;-57
2024/01/20 06:29:11;;;;;;;40.55;37.63;;;;;;;;;;5029979;28;20045;-57
2024/01/20 06:31:37;;;;;;;34.50;32.53;;;;;;;;;;5031672;28;20574;-56
2024/01/20 06:34:03;;;;;;;35.17;32.83;;;;;;;;;;5030782;28;20038;-55
2024/01/20 06:36:28;;;;;;;34.95;32.85;;;;;;;;;;5031286;28;20036;-57
2024/01/20 06:38:54;;;;;;;37.45;35.22;;;;;;;;;;5028458;28;20033;-55
2024/01/20 06:41:20;;;;;;;36.75;34.65;;;;;;;;;;5030111;28;20080;-56
2024/01/20 06:43:45;;;;;;;34.28;32.20;;;;;;;;;;5027796;28;20447;-56
2024/01/20 06:46:11;;;;;;;32.13;30.33;;;;;;;;;;5032067;28;20395;-57
2024/01/20 06:48:36;;;;;;;31.13;29.40;;;;;;;;;;5033816;28;20163;-57
2024/01/20 06:51:03;;;;;;;35.60;33.05;;;;;;;;;;5031242;28;20099;-56
2024/01/20 06:53:29;;;;;;;34.90;32.85;;;;;;;;;;5034296;28;20029;-57
2024/01/20 06:55:55;;;;;;;37.65;35.08;;;;;;;;;;5035038;28;20041;-56
2024/01/20 06:58:21;;;;;;;31.98;29.83;;;;;;;;;;5033266;28;20524;-57
2024/01/20 07:00:46;;;;;;;31.05;29.05;;;;;;;;;;5030613;28;20053;-55
2024/01/20 07:03:12;;;;;;;32.70;30.55;;;;;;;;;;5025887;28;20124;-52
2024/01/20 07:05:37;;;;;;;31.63;29.60;;;;;;;;;;5032479;28;20094;-56
2024/01/20 07:08:04;;;;;;;32.28;30.23;;;;;;;;;;5032430;28;20592;-56
2024/01/20 07:10:29;;;;;;;30.10;28.45;;;;;;;;;;5028113;28;20037;-55
2024/01/20 07:12:54;;;;;;;33.15;30.90;;;;;;;;;;5027964;28;20521;-53
2024/01/20 07:15:19;;;;;;;35.67;33.30;;;;;;;;;;5028610;28;20605;-56
2024/01/20 07:17:45;;;;;;;32.08;30.08;;;;;;;;;;5028407;28;20036;-54
2024/01/20 07:20:11;;;;;;;33.40;31.58;;;;;;;;;;5031172;28;20061;-55
2024/01/20 07:22:36;;;;;;;29.30;27.67;;;;;;;;;;5031953;28;20124;-55
2024/01/20 07:25:02;;;;;;;30.77;29.08;;;;;;;;;;5031732;28;20033;-53
2024/01/20 07:27:28;;;;;;;35.17;32.65;;;;;;;;;;5035496;28;20045;-56
2024/01/20 07:29:53;;;;;;;32.72;30.80;;;;;;;;;;5032682;28;20091;-55
2024/01/20 07:32:19;;;;;;;31.73;29.73;;;;;;;;;;5032499;28;20045;-54
2024/01/20 07:34:45;;;;;;;35.95;33.55;;;;;;;;;;5026700;28;20521;-56
2024/01/20 07:37:10;;;;;;;31.00;29.20;;;;;;;;;;5032651;28;20033;-56
2024/01/20 07:39:35;;;;;;;33.25;31.25;;;;;;;;;;5032151;28;20423;-56
2024/01/20 07:42:01;;;;;;;35.35;32.95;;;;;;;;;;5031636;28;20037;-57
2024/01/20 07:44:26;;;;;;;31.85;30.10;;;;;;;;;;5033933;28;20343;-56
2024/01/20 07:46:51;;;;;;;31.35;29.33;;;;;;;;;;5029088;28;20458;-54
2024/01/20 07:49:17;;;;;;;33.53;31.10;;;;;;;;;;5032397;28;20083;-56
2024/01/20 07:51:42;;;;;;;31.33;29.40;;;;;;;;;;5029242;28;20146;-54
2024/01/20 07:54:09;;;;;;;29.75;27.77;;;;;;;;;;5030440;28;20025;-56
2024/01/20 07:56:34;;;;;;;32.90;30.95;;;;;;;;;;5031051;28;20025;-55
2024/01/20 07:58:59;;;;;;;30.80;28.75;;;;;;;;;;5030286;28;20044;-56
2024/01/20 08:01:25;;;;;;;34.10;31.60;;;;;;;;;;5034613;28;20087;-55
2024/01/20 08:03:53;;;;;;;28.58;27.00;;;;;;;;;;5030197;28;20029;-55
2024/01/20 08:06:18;;;;;;;33.15;31.02;;;;;;;;;;5031284;28;20025;-54
2024/01/20 08:08:44;;;;;;;32.95;30.83;;;;;;;;;;5027328;28;20043;-55
2024/01/20 08:11:10;;;;;;;33.67;31.73;;;;;;;;;;5032071;28;20041;-54
2024/01/20 08:13:35;;;;;;;33.95;31.95;;;;;;;;;;5030604;28;20047;-56
2024/01/20 08:16:01;;;;;;;35.75;33.55;;;;;;;;;;5029793;28;20468;-56
2024/01/20 08:18:26;;;;;;;32.97;31.02;;;;;;;;;;5033477;28;20124;-54
2024/01/20 08:20:51;;;;;;;34.58;32.03;;;;;;;;;;5030125;28;20063;-55
2024/01/20 08:23:17;;;;;;;33.85;31.73;;;;;;;;;;5033880;28;20090;-54
2024/01/20 08:25:42;;;;;;;31.90;29.90;;;;;;;;;;5032945;28;20752;-55
2024/01/20 08:28:07;;;;;;;31.35;29.52;;;;;;;;;;5036970;28;20473;-54
2024/01/20 08:30:33;;;;;;;33.55;30.95;;;;;;;;;;5032492;28;20052;-54
2024/01/20 08:32:58;;;;;;;32.70;29.42;;;;;;;;;;5036465;28;20040;-51
2024/01/20 08:35:23;;;;;;;34.60;32.60;;;;;;;;;;5035302;28;20029;-52
2024/01/20 08:37:49;;;;;;;31.60;29.88;;;;;;;;;;5032570;28;20032;-48
2024/01/20 08:40:14;;;;;;;31.77;29.80;;;;;;;;;;5034215;28;20048;-53
2024/01/20 08:42:40;;;;;;;31.88;29.33;;;;;;;;;;5036194;28;20035;-52
2024/01/20 08:45:05;;;;;;;29.35;27.67;;;;;;;;;;5033448;28;20132;-52
2024/01/20 08:47:31;;;;;;;33.28;31.30;;;;;;;;;;5035806;28;20144;-55
2024/01/20 08:49:56;;;;;;;30.38;28.58;;;;;;;;;;5033687;28;20123;-54
2024/01/20 08:52:22;;;;;;;29.65;27.95;;;;;;;;;;5033310;28;20052;-50
2024/01/20 08:54:47;;;;;;;31.80;29.85;;;;;;;;;;5034516;28;20032;-53
2024/01/20 08:57:13;;;;;;;30.27;28.48;;;;;;;;;;5036777;28;20032;-54
2024/01/20 08:59:38;;;;;;;29.52;27.65;;;;;;;;;;5035262;28;20429;-52
2024/01/20 09:02:05;;;;;;;33.45;31.05;;;;;;;;;;5035214;28;20387;-55
2024/01/20 09:04:30;;;;;;;34.13;31.77;;;;;;;;;;5032962;28;20056;-59
2024/01/20 09:06:55;;;;;;;31.23;29.45;;;;;;;;;;5034192;28;20263;-59
2024/01/20 09:09:21;;;;;;;31.08;29.15;;;;;;;;;;5033274;28;20540;-59
2024/01/20 09:11:47;;;;;;;32.20;30.35;;;;;;;;;;5034059;28;20459;-59
2024/01/20 09:14:12;;;;;;;32.08;29.83;;;;;;;;;;5033996;28;20041;-59
2024/01/20 09:16:38;;;;;;;31.48;29.35;;;;;;;;;;5034932;28;20377;-59
2024/01/20 09:19:03;;;;;;;32.88;30.38;;;;;;;;;;5034816;28;20439;-60
2024/01/20 09:21:28;;;;;;;32.88;30.55;;;;;;;;;;5030892;28;20029;-60
2024/01/20 09:23:54;;;;;;;29.35;27.65;;;;;;;;;;5031492;28;20037;-59
2024/01/20 09:26:19;;;;;;;28.48;26.75;;;;;;;;;;5034915;28;20377;-59
2024/01/20 09:28:44;;;;;;;31.20;29.35;;;;;;;;;;5032488;28;20451;-59
2024/01/20 09:31:10;;;;;;;30.42;28.40;;;;;;;;;;5032378;28;20056;-59
2024/01/20 09:33:35;;;;;;;30.10;28.30;;;;;;;;;;5036748;28;20570;-59
2024/01/20 09:36:02;;;;;;;29.63;27.77;;;;;;;;;;5033159;28;20037;-59
2024/01/20 09:38:28;;;;;;;31.52;29.38;;;;;;;;;;5032606;28;20179;-59
2024/01/20 09:40:56;;;;;;;31.23;29.23;;;;;;;;;;5036359;28;20128;-59
2024/01/20 09:43:22;;;;;;;33.15;30.88;;;;;;;;;;5033255;28;20037;-59
2024/01/20 09:45:47;;;;;;;34.05;31.70;;;;;;;;;;5032550;28;20506;-59
2024/01/20 09:48:13;;;;;;;32.25;30.10;;;;;;;;;;5033664;28;20053;-60
2024/01/20 09:50:39;;;;;;;29.33;27.60;;;;;;;;;;5034672;28;20055;-59
2024/01/20 09:53:14;;;;;;;32.67;30.60;;;;;;;;;;5035317;28;20056;-59
2024/01/20 09:55:41;;;;;;;28.33;26.40;;;;;;;;;;5034065;28;20048;-59
2024/01/20 09:58:09;;;;;;;30.33;28.02;;;;;;;;;;5030673;28;20071;-60
2024/01/20 10:00:36;;;;;;;30.77;28.77;;;;;;;;;;5033099;28;20032;-59
2024/01/20 10:03:04;;;;;;;29.52;27.83;;;;;;;;;;5032511;28;20041;-59
2024/01/20 10:05:31;;;;;;;32.05;29.55;;;;;;;;;;5033601;28;20116;-60
2024/01/20 10:07:57;;;;;;;28.70;26.75;;;;;;;;;;5030258;28;20080;-59
2024/01/20 10:10:22;;;;;;;29.40;27.70;;;;;;;;;;5033608;28;20036;-59
2024/01/20 10:12:50;;;;;;;30.90;28.63;;;;;;;;;;5032233;28;20033;-59
2024/01/20 10:15:15;;;;;;;30.30;28.45;;;;;;;;;;5032464;28;20029;-60
2024/01/20 10:17:40;;;;;;;30.58;28.42;;;;;;;;;;5033198;28;20518;-50
2024/01/20 10:20:06;;;;;;;35.13;32.28;;;;;;;;;;5032529;28;20091;-55
2024/01/20 10:22:31;;;;;;;30.30;28.10;;;;;;;;;;5034636;28;20479;-54
2024/01/20 10:24:56;;;;;;;31.05;29.10;;;;;;;;;;5033928;28;20134;-56
2024/01/20 10:27:25;;;;;;;32.78;30.75;;;;;;;;;;5034655;28;20086;-56
2024/01/20 10:29:51;;;;;;;29.20;27.50;;;;;;;;;;5030270;28;20510;-54
2024/01/20 10:32:17;;;;;;;30.65;28.75;;;;;;;;;;5032963;28;20060;-59
2024/01/20 10:34:43;;;;;;;32.97;30.88;;;;;;;;;;5034227;28;20029;-54
2024/01/20 10:37:11;;;;;;;31.17;29.17;;;;;;;;;;5031286;28;20490;-50
2024/01/20 10:39:45;;;;;;;31.08;29.25;;;;;;;;;;5032947;28;20061;-53
2024/01/20 10:42:12;;;;;;;30.23;28.27;;;;;;;;;;5029643;28;20464;-53
2024/01/20 10:44:50;;;;;;;31.35;29.40;;;;;;;;;;5029685;28;20044;-50
2024/01/20 10:47:22;;;;;;;30.02;28.33;;;;;;;;;;5030660;28;20466;-59
2024/01/20 10:49:48;;;;;;;31.17;29.23;;;;;;;;;;5033188;28;20348;-59
2024/01/20 10:52:14;;;;;;;33.78;31.17;;;;;;;;;;5030376;28;20279;-59
2024/01/20 10:54:43;;;;;;;32.17;30.17;;;;;;;;;;5031571;28;20036;-59
2024/01/20 10:57:10;;;;;;;33.53;31.42;;;;;;;;;;5030544;28;20551;-59
2024/01/20 10:59:41;;;;;;;33.58;31.45;;;;;;;;;;5031362;28;20083;-59
2024/01/20 11:02:09;;;;;;;33.95;31.20;;;;;;;;;;5031036;28;20767;-59
2024/01/20 11:04:35;;;;;;;30.02;28.23;;;;;;;;;;5033203;28;20414;-59
2024/01/20 11:07:00;;;;;;;31.58;29.35;;;;;;;;;;5030278;28;20030;-60
2024/01/20 11:09:25;;;;;;;30.40;28.45;;;;;;;;;;5032200;28;20056;-59
2024/01/20 11:11:59;;;;;;;31.55;29.35;;;;;;;;;;5032233;28;20056;-60
2024/01/20 11:14:31;;;;;;;32.45;29.77;;;;;;;;;;5031676;28;20466;-59
2024/01/20 11:16:57;;;;;;;29.88;28.08;;;;;;;;;;5031314;28;20424;-60
2024/01/20 11:19:29;;;;;;;30.45;28.65;;;;;;;;;;5031560;28;20029;-60
2024/01/20 11:21:54;;;;;;;28.58;26.95;;;;;;;;;;5028655;28;20119;-60
2024/01/20 11:24:35;;;;;;;31.15;29.10;;;;;;;;;;5032049;28;20116;-60
2024/01/20 11:27:03;;;;;;;29.17;27.15;;;;;;;;;;5030351;28;20029;-60
2024/01/20 11:29:28;;;;;;;29.92;28.05;;;;;;;;;;5034190;28;20037;-60
2024/01/20 11:31:55;;;;;;;30.83;28.70;;;;;;;;;;5032730;28;20086;-60
2024/01/20 11:34:21;;;;;;;30.15;28.23;;;;;;;;;;5030131;28;20040;-60
2024/01/20 11:36:48;;;;;;;29.80;28.00;;;;;;;;;;5032248;28;20383;-59
2024/01/20 11:39:14;;;;;;;28.88;27.08;;;;;;;;;;5031223;28;20170;-60
2024/01/20 11:41:40;;;;;;;31.05;28.70;;;;;;;;;;5035779;28;20466;-60
2024/01/20 11:44:05;;;;;;;28.88;27.15;;;;;;;;;;5030841;28;20067;-60
2024/01/20 11:46:31;;;;;;;31.02;29.02;;;;;;;;;;5031327;28;20072;-60
2024/01/20 11:48:56;;;;;;;35.78;33.17;;;;;;;;;;5032001;28;20026;-60
2024/01/20 11:51:22;;;;;;;28.55;26.63;;;;;;;;;;5030917;28;20065;-60
2024/01/20 11:53:47;;;;;;;29.08;27.17;;;;;;;;;;5032005;28;20032;-60
2024/01/20 11:56:15;;;;;;;29.42;27.20;;;;;;;;;;5032301;28;20025;-60
2024/01/20 11:58:40;;;;;;;27.83;26.15;;;;;;;;;;5035506;28;20033;-59
2024/01/20 12:01:06;;;;;;;30.30;28.40;;;;;;;;;;5034856;28;20040;-59
2024/01/20 12:03:31;;;;;;;29.80;28.00;;;;;;;;;;5033739;28;20036;-59
2024/01/20 12:06:03;;;;;;;31.27;28.98;;;;;;;;;;5032556;28;20115;-59
2024/01/20 12:08:29;;;;;;;29.85;27.67;;;;;;;;;;5035116;28;20477;-59
2024/01/20 12:10:54;;;;;;;30.30;28.30;;;;;;;;;;5034715;28;20033;-60
2024/01/20 12:13:20;;;;;;;31.58;29.35;;;;;;;;;;5034321;28;20040;-60
2024/01/20 12:15:47;;;;;;;28.13;26.42;;;;;;;;;;5035926;28;20029;-60
2024/01/20 12:18:13;;;;;;;32.22;30.05;;;;;;;;;;5036650;28;20052;-60
2024/01/20 12:20:38;;;;;;;29.52;27.83;;;;;;;;;;5036291;28;20029;-60
2024/01/20 12:23:04;;;;;;;32.28;30.15;;;;;;;;;;5036745;28;20183;-60
2024/01/20 12:25:30;;;;;;;33.75;31.75;;;;;;;;;;5037012;28;20052;-61
2024/01/20 12:27:57;;;;;;;32.80;30.48;;;;;;;;;;5036619;28;20087;-59
2024/01/20 12:30:23;;;;;;;30.85;28.95;;;;;;;;;;5033536;28;20128;-61
2024/01/20 12:32:48;;;;;;;30.73;28.27;;;;;;;;;;5035562;28;20115;-60
2024/01/20 12:35:14;;;;;;;32.03;29.48;;;;;;;;;;5033868;28;20030;-59
2024/01/20 12:37:39;;;;;;;30.85;28.95;;;;;;;;;;5037625;28;20047;-60
2024/01/20 12:40:08;;;;;;;30.27;28.48;;;;;;;;;;5034128;28;21069;-60
2024/01/20 12:42:34;;;;;;;31.80;29.45;;;;;;;;;;5033412;28;20121;-59
2024/01/20 12:45:00;;;;;;;29.98;27.98;;;;;;;;;;5031514;28;20045;-59
2024/01/20 12:47:25;;;;;;;30.95;28.95;;;;;;;;;;5036726;28;20053;-59
2024/01/20 12:49:52;;;;;;;29.55;27.75;;;;;;;;;;5036522;28;20531;-59
2024/01/20 12:52:17;;;;;;;30.95;28.85;;;;;;;;;;5035210;28;20040;-59
2024/01/20 12:54:43;;;;;;;29.35;27.27;;;;;;;;;;5032681;28;20029;-59
2024/01/20 12:57:08;;;;;;;30.23;28.42;;;;;;;;;;5032347;28;20041;-59
2024/01/20 12:59:33;;;;;;;30.00;28.05;;;;;;;;;;5037788;28;20044;-59
2024/01/20 13:01:59;;;;;;;30.77;28.83;;;;;;;;;;5035720;28;20041;-59
2024/01/20 13:04:25;;;;;;;32.60;30.50;;;;;;;;;;5033927;28;20033;-59
2024/01/20 13:06:50;;;;;;;30.55;28.52;;;;;;;;;;5035225;28;20061;-59
2024/01/20 13:09:17;;;;;;;28.05;26.20;;;;;;;;;;5031938;28;20052;-59
2024/01/20 13:11:42;;;;;;;32.67;30.52;;;;;;;;;;5036417;28;20049;-59
2024/01/20 13:14:07;;;;;;;30.13;28.33;;;;;;;;;;5032639;28;20052;-59
2024/01/20 13:16:33;;;;;;;33.38;31.30;;;;;;;;;;5037308;28;20108;-59
2024/01/20 13:18:59;;;;;;;30.85;28.92;;;;;;;;;;5039006;28;20528;-59
2024/01/20 13:21:24;;;;;;;31.75;29.95;;;;;;;;;;5034316;28;20064;-59
2024/01/20 13:23:50;;;;;;;31.75;29.75;;;;;;;;;;5029739;28;20037;-60
2024/01/20 13:26:16;;;;;;;32.03;29.38;;;;;;;;;;5034477;28;20067;-60
2024/01/20 13:28:42;;;;;;;32.20;30.17;;;;;;;;;;5032983;28;20033;-60
2024/01/20 13:31:08;;;;;;;29.70;27.55;;;;;;;;;;5034313;28;20031;-60
2024/01/20 13:33:33;;;;;;;30.88;28.83;;;;;;;;;;5034267;28;20041;-60
2024/01/20 13:35:59;;;;;;;31.30;29.17;;;;;;;;;;5031777;28;20072;-60
2024/01/20 13:38:24;;;;;;;28.77;27.05;;;;;;;;;;5034737;28;20020;-60
2024/01/20 13:40:50;;;;;;;32.92;30.83;;;;;;;;;;5035704;28;20438;-60
2024/01/20 13:43:16;;;;;;;30.33;28.63;;;;;;;;;;5032307;28;20033;-60
2024/01/20 13:45:41;;;;;;;31.15;29.23;;;;;;;;;;5032754;28;20036;-60
2024/01/20 13:48:07;;;;;;;31.70;29.55;;;;;;;;;;5032020;28;20459;-60
2024/01/20 13:50:32;;;;;;;28.65;26.92;;;;;;;;;;5027154;28;20462;-60
2024/01/20 13:52:58;;;;;;;30.05;28.13;;;;;;;;;;5030809;28;20025;-60
2024/01/20 13:55:23;;;;;;;29.27;27.30;;;;;;;;;;5033682;28;21001;-60
2024/01/20 13:57:48;;;;;;;29.65;27.85;;;;;;;;;;5035207;28;20033;-61
2024/01/20 14:00:14;;;;;;;32.58;30.55;;;;;;;;;;5031105;28;20108;-60
2024/01/20 14:02:40;;;;;;;32.00;29.92;;;;;;;;;;5035782;28;20037;-60
2024/01/20 14:05:06;;;;;;;29.70;27.70;;;;;;;;;;5034830;28;20028;-61
2024/01/20 14:07:31;;;;;;;34.50;31.95;;;;;;;;;;5033674;28;20044;-61